Time,TemperatureF,DewpointF,PressureIn,WindDirection,WindDirectionDegrees,WindSpeedMPH,WindSpeedGustMPH,Humidity,HourlyPrecipIn,Conditions,Clouds,dailyrainin,SoftwareType,DateUTC
2013-03-24 00:03:00,36.8,31.5,30.37,ENE,73,0.0,0.0,81,0.00,,,0.00,Wunderground v.1.15,2013-03-24 07:03:00,
2013-03-24 00:08:00,36.6,31.6,30.37,ENE,73,0.0,0.0,82,0.00,,,0.00,Wunderground v.1.15,2013-03-24 07:08:00,
2013-03-24 00:14:00,36.5,31.5,30.37,ENE,73,0.0,0.0,82,0.00,,,0.00,Wunderground v.1.15,2013-03-24 07:14:00,
2013-03-24 00:19:00,36.6,31.9,30.37,ENE,73,0.0,0.0,83,0.00,,,0.00,Wunderground v.1.15,2013-03-24 07:19:00,
2013-03-24 00:25:00,36.4,31.4,30.37,ENE,73,0.0,0.0,82,0.00,,,0.00,Wunderground v.1.15,2013-03-24 07:25:00,
2013-03-24 00:31:00,36.4,31.4,30.37,ENE,73,0.0,0.0,82,0.00,,,0.00,Wunderground v.1.15,2013-03-24 07:31:00,
2013-03-24 00:37:00,36.5,31.5,30.36,ENE,73,0.0,0.0,82,0.00,,,0.00,Wunderground v.1.15,2013-03-24 07:37:00,
2013-03-24 00:42:00,36.8,31.5,30.37,ENE,73,0.0,0.0,81,0.00,,,0.00,Wunderground v.1.15,2013-03-24 07:42:00,
2013-03-24 00:47:00,37.1,31.5,30.37,ENE,73,0.0,0.0,80,0.00,,,0.00,Wunderground v.1.15,2013-03-24 07:47:00,
2013-03-24 00:53:00,37.2,31.6,30.37,ENE,73,0.0,0.0,80,0.00,,,0.00,Wunderground v.1.15,2013-03-24 07:53:00,
2013-03-24 00:58:00,37.3,31.7,30.37,ENE,73,1.0,3.0,80,0.00,,,0.00,Wunderground v.1.15,2013-03-24 07:58:00,
2013-03-24 01:04:00,37.3,31.7,30.37,ENE,73,0.0,2.0,80,0.00,,,0.00,Wunderground v.1.15,2013-03-24 08:04:00,
2013-03-24 01:10:00,37.3,31.7,30.36,ENE,73,0.0,1.0,80,0.00,,,0.00,Wunderground v.1.15,2013-03-24 08:10:00,
2013-03-24 01:15:00,36.9,31.6,30.37,ENE,73,0.0,1.0,81,0.00,,,0.00,Wunderground v.1.15,2013-03-24 08:15:00,
2013-03-24 01:21:00,36.5,31.5,30.37,ENE,73,0.0,0.0,82,0.00,,,0.00,Wunderground v.1.15,2013-03-24 08:21:00,
2013-03-24 01:27:00,36.3,31.3,30.37,ENE,73,0.0,0.0,82,0.00,,,0.00,Wunderground v.1.15,2013-03-24 08:27:00,
2013-03-24 01:33:00,36.3,31.3,30.37,ENE,73,0.0,0.0,82,0.00,,,0.00,Wunderground v.1.15,2013-03-24 08:33:00,
2013-03-24 01:39:00,36.1,31.1,30.37,ENE,73,0.0,0.0,82,0.00,,,0.00,Wunderground v.1.15,2013-03-24 08:39:00,
2013-03-24 01:44:00,36.1,31.4,30.37,ENE,73,0.0,0.0,83,0.00,,,0.00,Wunderground v.1.15,2013-03-24 08:44:00,
2013-03-24 01:50:00,36.2,31.2,30.37,ENE,73,0.0,0.0,82,0.00,,,0.00,Wunderground v.1.15,2013-03-24 08:50:00,
2013-03-24 01:55:00,36.4,31.4,30.37,ENE,73,0.0,0.0,82,0.00,,,0.00,Wunderground v.1.15,2013-03-24 08:55:00,
2013-03-24 02:00:00,36.4,31.4,30.37,ENE,73,0.0,0.0,82,0.00,,,0.00,Wunderground v.1.15,2013-03-24 09:00:00,
2013-03-24 02:06:00,36.1,31.1,30.37,ENE,73,1.0,2.0,82,0.00,,,0.00,Wunderground v.1.15,2013-03-24 09:06:00,
2013-03-24 02:11:00,35.6,30.6,30.37,ENE,73,1.0,1.0,82,0.00,,,0.00,Wunderground v.1.15,2013-03-24 09:11:00,
2013-03-24 02:16:00,35.3,30.7,30.37,ENE,73,0.0,2.0,83,0.00,,,0.00,Wunderground v.1.15,2013-03-24 09:16:00,
2013-03-24 02:21:00,35.1,30.8,30.37,ENE,73,0.0,1.0,84,0.00,,,0.00,Wunderground v.1.15,2013-03-24 09:21:00,
2013-03-24 02:26:00,35.0,30.7,30.37,ENE,73,1.0,3.0,84,0.00,,,0.00,Wunderground v.1.15,2013-03-24 09:26:00,
2013-03-24 02:31:00,35.0,30.7,30.37,ENE,73,1.0,1.0,84,0.00,,,0.00,Wunderground v.1.15,2013-03-24 09:31:00,
2013-03-24 02:36:00,34.8,30.5,30.37,ENE,73,1.0,3.0,84,0.00,,,0.00,Wunderground v.1.15,2013-03-24 09:36:00,
2013-03-24 02:41:00,34.6,30.3,30.37,ENE,73,3.0,3.0,84,0.00,,,0.00,Wunderground v.1.15,2013-03-24 09:41:00,
2013-03-24 02:46:00,34.4,30.1,30.37,ENE,73,0.0,4.0,84,0.00,,,0.00,Wunderground v.1.15,2013-03-24 09:46:00,
2013-03-24 02:51:00,34.4,30.1,30.37,ENE,73,0.0,2.0,84,0.00,,,0.00,Wunderground v.1.15,2013-03-24 09:51:00,
2013-03-24 02:57:00,34.4,30.1,30.37,ENE,73,3.0,3.0,84,0.00,,,0.00,Wunderground v.1.15,2013-03-24 09:57:00,
2013-03-24 03:01:00,34.4,30.4,30.37,ENE,73,0.0,3.0,85,0.00,,,0.00,Wunderground v.1.15,2013-03-24 10:01:00,
2013-03-24 03:06:00,34.4,30.4,30.37,ENE,73,0.0,4.0,85,0.00,,,0.00,Wunderground v.1.15,2013-03-24 10:06:00,
2013-03-24 03:11:00,34.4,30.1,30.37,ENE,73,2.0,2.0,84,0.00,,,0.00,Wunderground v.1.15,2013-03-24 10:11:00,
2013-03-24 03:17:00,34.4,30.1,30.37,ENE,73,2.0,3.0,84,0.00,,,0.00,Wunderground v.1.15,2013-03-24 10:17:00,
2013-03-24 03:22:00,34.4,30.4,30.37,ENE,73,0.0,2.0,85,0.00,,,0.00,Wunderground v.1.15,2013-03-24 10:22:00,
2013-03-24 03:27:00,34.3,30.3,30.37,ENE,73,3.0,4.0,85,0.00,,,0.00,Wunderground v.1.15,2013-03-24 10:27:00,
2013-03-24 03:32:00,34.1,30.1,30.37,ENE,73,0.0,4.0,85,0.00,,,0.00,Wunderground v.1.15,2013-03-24 10:32:00,
2013-03-24 03:37:00,33.9,29.9,30.37,ENE,73,0.0,4.0,85,0.00,,,0.00,Wunderground v.1.15,2013-03-24 10:37:00,
2013-03-24 03:42:00,33.8,29.8,30.36,ENE,73,0.0,4.0,85,0.00,,,0.00,Wunderground v.1.15,2013-03-24 10:42:00,
2013-03-24 03:47:00,33.8,29.8,30.36,ENE,73,0.0,4.0,85,0.00,,,0.00,Wunderground v.1.15,2013-03-24 10:47:00,
2013-03-24 03:52:00,33.8,30.1,30.36,ENE,73,0.0,3.0,86,0.00,,,0.00,Wunderground v.1.15,2013-03-24 10:52:00,
2013-03-24 03:57:00,33.8,30.1,30.36,ENE,73,0.0,3.0,86,0.00,,,0.00,Wunderground v.1.15,2013-03-24 10:57:00,
2013-03-24 04:02:00,33.8,30.1,30.36,ENE,73,2.0,2.0,86,0.00,,,0.00,Wunderground v.1.15,2013-03-24 11:02:00,
2013-03-24 04:07:00,33.8,30.1,30.36,ENE,73,3.0,3.0,86,0.00,,,0.00,Wunderground v.1.15,2013-03-24 11:07:00,
2013-03-24 04:12:00,33.7,30.0,30.36,ENE,73,0.0,3.0,86,0.00,,,0.00,Wunderground v.1.15,2013-03-24 11:12:00,
2013-03-24 04:17:00,33.7,30.0,30.36,ENE,73,0.0,3.0,86,0.00,,,0.00,Wunderground v.1.15,2013-03-24 11:17:00,
2013-03-24 04:22:00,33.7,30.0,30.36,ENE,73,1.0,1.0,86,0.00,,,0.00,Wunderground v.1.15,2013-03-24 11:22:00,
2013-03-24 04:27:00,33.6,30.1,30.36,ENE,73,0.0,3.0,87,0.00,,,0.00,Wunderground v.1.15,2013-03-24 11:27:00,
2013-03-24 04:32:00,33.6,29.9,30.35,ENE,73,0.0,2.0,86,0.00,,,0.00,Wunderground v.1.15,2013-03-24 11:32:00,
2013-03-24 04:37:00,33.5,29.8,30.35,ENE,73,0.0,5.0,86,0.00,,,0.00,Wunderground v.1.15,2013-03-24 11:37:00,
2013-03-24 04:42:00,33.5,29.8,30.36,ENE,73,1.0,3.0,86,0.00,,,0.00,Wunderground v.1.15,2013-03-24 11:42:00,
2013-03-24 04:47:00,33.5,29.5,30.36,ENE,73,0.0,3.0,85,0.00,,,0.00,Wunderground v.1.15,2013-03-24 11:47:00,
2013-03-24 04:52:00,33.1,29.1,30.36,ENE,73,0.0,1.0,85,0.00,,,0.00,Wunderground v.1.15,2013-03-24 11:52:00,
2013-03-24 04:57:00,33.1,29.1,30.36,ENE,73,0.0,1.0,85,0.00,,,0.00,Wunderground v.1.15,2013-03-24 11:57:00,
2013-03-24 05:02:00,33.4,29.7,30.36,ENE,73,1.0,1.0,86,0.00,,,0.00,Wunderground v.1.15,2013-03-24 12:02:00,
2013-03-24 05:07:00,33.3,29.6,30.36,ENE,73,0.0,1.0,86,0.00,,,0.00,Wunderground v.1.15,2013-03-24 12:07:00,
2013-03-24 05:13:00,33.4,29.7,30.36,ENE,73,1.0,1.0,86,0.00,,,0.00,Wunderground v.1.15,2013-03-24 12:13:00,
2013-03-24 05:18:00,33.5,29.8,30.36,ENE,73,0.0,1.0,86,0.00,,,0.00,Wunderground v.1.15,2013-03-24 12:18:00,
2013-03-24 05:23:00,33.6,29.9,30.35,ENE,73,0.0,0.0,86,0.00,,,0.00,Wunderground v.1.15,2013-03-24 12:23:00,
2013-03-24 05:28:00,33.5,29.8,30.35,ENE,73,1.0,1.0,86,0.00,,,0.00,Wunderground v.1.15,2013-03-24 12:28:00,
2013-03-24 05:33:00,33.4,29.7,30.35,ENE,73,0.0,1.0,86,0.00,,,0.00,Wunderground v.1.15,2013-03-24 12:33:00,
2013-03-24 05:38:00,33.4,29.7,30.35,ENE,73,0.0,1.0,86,0.00,,,0.00,Wunderground v.1.15,2013-03-24 12:38:00,
2013-03-24 05:43:00,33.5,30.0,30.35,ENE,73,0.0,1.0,87,0.00,,,0.00,Wunderground v.1.15,2013-03-24 12:43:00,
2013-03-24 05:48:00,33.5,30.0,30.34,ENE,73,0.0,1.0,87,0.00,,,0.00,Wunderground v.1.15,2013-03-24 12:48:00,
2013-03-24 05:53:00,33.3,30.1,30.34,ENE,73,1.0,1.0,88,0.00,,,0.00,Wunderground v.1.15,2013-03-24 12:53:00,
2013-03-24 05:58:00,33.3,30.1,30.34,ENE,73,2.0,2.0,88,0.00,,,0.00,Wunderground v.1.15,2013-03-24 12:58:00,
2013-03-24 06:03:00,33.2,30.0,30.35,ENE,73,0.0,2.0,88,0.00,,,0.00,Wunderground v.1.15,2013-03-24 13:03:00,
2013-03-24 06:08:00,33.2,30.0,30.35,ENE,73,0.0,3.0,88,0.00,,,0.00,Wunderground v.1.15,2013-03-24 13:08:00,
2013-03-24 06:13:00,33.0,29.8,30.35,ENE,73,0.0,4.0,88,0.00,,,0.00,Wunderground v.1.15,2013-03-24 13:13:00,
2013-03-24 06:18:00,32.8,29.6,30.35,ENE,73,4.0,4.0,88,0.00,,,0.00,Wunderground v.1.15,2013-03-24 13:18:00,
2013-03-24 06:23:00,32.8,29.6,30.35,ENE,73,2.0,3.0,88,0.00,,,0.00,Wunderground v.1.15,2013-03-24 13:23:00,
2013-03-24 06:28:00,32.8,29.6,30.35,ENE,73,0.0,4.0,88,0.00,,,0.00,Wunderground v.1.15,2013-03-24 13:28:00,
2013-03-24 06:33:00,32.7,29.5,30.35,ENE,73,1.0,2.0,88,0.00,,,0.00,Wunderground v.1.15,2013-03-24 13:33:00,
2013-03-24 06:38:00,32.7,29.5,30.35,ENE,73,1.0,2.0,88,0.00,,,0.00,Wunderground v.1.15,2013-03-24 13:38:00,
2013-03-24 06:43:00,32.7,29.5,30.35,ENE,73,0.0,2.0,88,0.00,,,0.00,Wunderground v.1.15,2013-03-24 13:43:00,
2013-03-24 06:48:00,32.7,29.5,30.35,ENE,73,0.0,2.0,88,0.00,,,0.00,Wunderground v.1.15,2013-03-24 13:48:00,
2013-03-24 06:53:00,32.5,29.1,30.35,ENE,73,2.0,2.0,87,0.00,,,0.00,Wunderground v.1.15,2013-03-24 13:53:00,
2013-03-24 06:58:00,32.6,29.2,30.35,ENE,73,1.0,2.0,87,0.00,,,0.00,Wunderground v.1.15,2013-03-24 13:58:00,
2013-03-24 07:03:00,32.7,29.5,30.35,ENE,73,0.0,2.0,88,0.00,,,0.00,Wunderground v.1.15,2013-03-24 14:03:00,
2013-03-24 07:08:00,32.4,29.0,30.35,ENE,73,0.0,2.0,87,0.00,,,0.00,Wunderground v.1.15,2013-03-24 14:08:00,
2013-03-24 07:13:00,32.5,29.3,30.35,ENE,73,0.0,1.0,88,0.00,,,0.00,Wunderground v.1.15,2013-03-24 14:13:00,
2013-03-24 07:18:00,32.9,29.7,30.35,ENE,73,0.0,1.0,88,0.00,,,0.00,Wunderground v.1.15,2013-03-24 14:18:00,
2013-03-24 07:23:00,33.0,29.8,30.35,ENE,73,0.0,2.0,88,0.00,,,0.00,Wunderground v.1.15,2013-03-24 14:23:00,
2013-03-24 07:28:00,33.0,29.8,30.35,ENE,73,0.0,2.0,88,0.00,,,0.00,Wunderground v.1.15,2013-03-24 14:28:00,
2013-03-24 07:34:00,32.7,29.5,30.35,ENE,73,0.0,0.0,88,0.00,,,0.00,Wunderground v.1.15,2013-03-24 14:34:00,
2013-03-24 07:39:00,32.9,29.7,30.35,ENE,73,0.0,0.0,88,0.00,,,0.00,Wunderground v.1.15,2013-03-24 14:39:00,
2013-03-24 07:44:00,33.3,30.1,30.35,ENE,73,0.0,1.0,88,0.00,,,0.00,Wunderground v.1.15,2013-03-24 14:44:00,
2013-03-24 07:49:00,33.8,30.9,30.34,ENE,73,0.0,2.0,89,0.00,,,0.00,Wunderground v.1.15,2013-03-24 14:49:00,
2013-03-24 07:54:00,34.1,31.2,30.35,ENE,73,1.0,2.0,89,0.00,,,0.00,Wunderground v.1.15,2013-03-24 14:54:00,
2013-03-24 07:59:00,33.7,30.5,30.35,ENE,73,2.0,3.0,88,0.00,,,0.00,Wunderground v.1.15,2013-03-24 14:59:00,
2013-03-24 08:04:00,34.3,31.1,30.34,ENE,73,0.0,2.0,88,0.00,,,0.00,Wunderground v.1.15,2013-03-24 15:04:00,
2013-03-24 08:09:00,34.4,31.2,30.34,ENE,73,2.0,5.0,88,0.00,,,0.00,Wunderground v.1.15,2013-03-24 15:09:00,
2013-03-24 08:14:00,34.7,31.5,30.34,ENE,73,0.0,2.0,88,0.00,,,0.00,Wunderground v.1.15,2013-03-24 15:14:00,
2013-03-24 08:19:00,34.9,31.4,30.34,ENE,73,0.0,3.0,87,0.00,,,0.00,Wunderground v.1.15,2013-03-24 15:19:00,
2013-03-24 08:24:00,35.0,31.5,30.34,ENE,73,0.0,1.0,87,0.00,,,0.00,Wunderground v.1.15,2013-03-24 15:24:00,
2013-03-24 08:29:00,34.8,31.3,30.34,ENE,73,0.0,2.0,87,0.00,,,0.00,Wunderground v.1.15,2013-03-24 15:29:00,
2013-03-24 08:34:00,34.6,31.1,30.34,ENE,73,0.0,0.0,87,0.00,,,0.00,Wunderground v.1.15,2013-03-24 15:34:00,
2013-03-24 08:39:00,34.9,31.4,30.34,ENE,73,0.0,0.0,87,0.00,,,0.00,Wunderground v.1.15,2013-03-24 15:39:00,
2013-03-24 08:44:00,35.0,31.2,30.34,ENE,73,0.0,0.0,86,0.00,,,0.00,Wunderground v.1.15,2013-03-24 15:44:00,
2013-03-24 08:49:00,35.2,31.1,30.33,ENE,73,0.0,0.0,85,0.00,,,0.00,Wunderground v.1.15,2013-03-24 15:49:00,
2013-03-24 08:54:00,35.5,31.1,30.33,ENE,73,0.0,0.0,84,0.00,,,0.00,Wunderground v.1.15,2013-03-24 15:54:00,
2013-03-24 08:59:00,35.5,31.1,30.34,ENE,73,0.0,0.0,84,0.00,,,0.00,Wunderground v.1.15,2013-03-24 15:59:00,
2013-03-24 09:04:00,36.0,31.6,30.34,ENE,73,0.0,0.0,84,0.00,,,0.00,Wunderground v.1.15,2013-03-24 16:04:00,
2013-03-24 09:10:00,36.1,31.7,30.34,ENE,73,0.0,0.0,84,0.00,,,0.00,Wunderground v.1.15,2013-03-24 16:10:00,
2013-03-24 09:15:00,36.0,31.6,30.34,ENE,73,0.0,2.0,84,0.00,,,0.00,Wunderground v.1.15,2013-03-24 16:15:00,
2013-03-24 09:20:00,36.2,31.8,30.33,ENE,73,1.0,2.0,84,0.00,,,0.00,Wunderground v.1.15,2013-03-24 16:20:00,
2013-03-24 09:25:00,36.3,31.9,30.34,ENE,73,1.0,3.0,84,0.00,,,0.00,Wunderground v.1.15,2013-03-24 16:25:00,
2013-03-24 09:30:00,36.4,32.0,30.34,ENE,73,1.0,3.0,84,0.00,,,0.00,Wunderground v.1.15,2013-03-24 16:30:00,
2013-03-24 09:35:00,36.7,32.3,30.33,ENE,73,1.0,4.0,84,0.00,,,0.00,Wunderground v.1.15,2013-03-24 16:35:00,
2013-03-24 09:40:00,37.0,32.6,30.33,ENE,73,0.0,2.0,84,0.00,,,0.00,Wunderground v.1.15,2013-03-24 16:40:00,
2013-03-24 09:45:00,37.2,32.5,30.34,ENE,72,4.0,5.0,83,0.00,,,0.00,Wunderground v.1.15,2013-03-24 16:45:00,
2013-03-24 09:50:00,37.5,32.8,30.34,ENE,65,0.0,3.0,83,0.00,,,0.00,Wunderground v.1.15,2013-03-24 16:50:00,
2013-03-24 09:55:00,37.8,32.8,30.34,ENE,64,1.0,6.0,82,0.00,,,0.00,Wunderground v.1.15,2013-03-24 16:55:00,
2013-03-24 10:00:00,38.2,33.5,30.34,ENE,64,0.0,1.0,83,0.00,,,0.00,Wunderground v.1.15,2013-03-24 17:00:00,
2013-03-24 10:05:00,38.7,33.7,30.34,ENE,64,3.0,4.0,82,0.00,,,0.00,Wunderground v.1.15,2013-03-24 17:05:00,
2013-03-24 10:10:00,38.9,33.6,30.33,ENE,64,0.0,3.0,81,0.00,,,0.00,Wunderground v.1.15,2013-03-24 17:10:00,
2013-03-24 10:15:00,39.1,33.1,30.33,ENE,64,0.0,3.0,79,0.00,,,0.00,Wunderground v.1.15,2013-03-24 17:15:00,
2013-03-24 10:20:00,39.2,33.9,30.33,ENE,64,0.0,2.0,81,0.00,,,0.00,Wunderground v.1.15,2013-03-24 17:20:00,
2013-03-24 10:25:00,39.9,34.2,30.33,ENE,64,1.0,5.0,80,0.00,,,0.00,Wunderground v.1.15,2013-03-24 17:25:00,
2013-03-24 10:30:00,40.3,34.6,30.33,ENE,64,0.0,0.0,80,0.00,,,0.00,Wunderground v.1.15,2013-03-24 17:30:00,
2013-03-24 10:35:00,40.3,34.0,30.33,ENE,64,0.0,3.0,78,0.00,,,0.00,Wunderground v.1.15,2013-03-24 17:35:00,
2013-03-24 10:40:00,40.5,33.9,30.33,ENE,64,0.0,1.0,77,0.00,,,0.00,Wunderground v.1.15,2013-03-24 17:40:00,
2013-03-24 10:45:00,41.0,32.7,30.33,ENE,64,0.0,1.0,72,0.00,,,0.00,Wunderground v.1.15,2013-03-24 17:45:00,
2013-03-24 10:50:00,41.5,32.1,30.33,ENE,64,0.0,0.0,69,0.00,,,0.00,Wunderground v.1.15,2013-03-24 17:50:00,
2013-03-24 10:55:00,41.7,30.8,30.33,ENE,64,0.0,0.0,65,0.00,,,0.00,Wunderground v.1.15,2013-03-24 17:55:00,
2013-03-24 11:00:00,42.0,31.5,30.33,ENE,64,1.0,2.0,66,0.00,,,0.00,Wunderground v.1.15,2013-03-24 18:00:00,
2013-03-24 11:05:00,41.9,32.1,30.33,ENE,64,2.0,4.0,68,0.00,,,0.00,Wunderground v.1.15,2013-03-24 18:05:00,
2013-03-24 11:10:00,42.1,33.0,30.33,ENE,64,0.0,1.0,70,0.00,,,0.00,Wunderground v.1.15,2013-03-24 18:10:00,
2013-03-24 11:15:00,42.3,32.8,30.33,ENE,64,0.0,3.0,69,0.00,,,0.00,Wunderground v.1.15,2013-03-24 18:15:00,
2013-03-24 11:20:00,42.5,33.0,30.33,ENE,64,0.0,1.0,69,0.00,,,0.00,Wunderground v.1.15,2013-03-24 18:20:00,
2013-03-24 11:25:00,42.8,33.3,30.33,ENE,64,0.0,3.0,69,0.00,,,0.00,Wunderground v.1.15,2013-03-24 18:25:00,
2013-03-24 11:31:00,43.0,33.5,30.33,ENE,64,0.0,5.0,69,0.00,,,0.00,Wunderground v.1.15,2013-03-24 18:31:00,
2013-03-24 11:36:00,43.1,33.3,30.32,ENE,64,0.0,5.0,68,0.00,,,0.00,Wunderground v.1.15,2013-03-24 18:36:00,
2013-03-24 11:41:00,43.4,33.5,30.32,ENE,64,3.0,3.0,68,0.00,,,0.00,Wunderground v.1.15,2013-03-24 18:41:00,
2013-03-24 11:46:00,43.5,33.6,30.32,ENE,64,1.0,3.0,68,0.00,,,0.00,Wunderground v.1.15,2013-03-24 18:46:00,
2013-03-24 11:51:00,43.8,33.2,30.32,ENE,64,1.0,3.0,66,0.00,,,0.00,Wunderground v.1.15,2013-03-24 18:51:00,
2013-03-24 11:56:00,44.2,33.9,30.32,ENE,64,0.0,3.0,67,0.00,,,0.00,Wunderground v.1.15,2013-03-24 18:56:00,
2013-03-24 12:01:00,44.5,33.5,30.32,ENE,64,1.0,2.0,65,0.00,,,0.00,Wunderground v.1.15,2013-03-24 19:01:00,
2013-03-24 12:06:00,44.8,33.0,30.32,ENE,64,0.0,2.0,63,0.00,,,0.00,Wunderground v.1.15,2013-03-24 19:06:00,
2013-03-24 12:11:00,45.0,33.9,30.32,ENE,64,2.0,2.0,65,0.00,,,0.00,Wunderground v.1.15,2013-03-24 19:11:00,
2013-03-24 12:16:00,45.0,33.9,30.31,ENE,64,0.0,2.0,65,0.00,,,0.00,Wunderground v.1.15,2013-03-24 19:16:00,
2013-03-24 12:21:00,45.2,33.3,30.31,ENE,64,0.0,1.0,63,0.00,,,0.00,Wunderground v.1.15,2013-03-24 19:21:00,
2013-03-24 12:26:00,45.8,33.9,30.31,ENE,64,0.0,1.0,63,0.00,,,0.00,Wunderground v.1.15,2013-03-24 19:26:00,
2013-03-24 12:31:00,46.4,34.1,30.31,ENE,64,2.0,2.0,62,0.00,,,0.00,Wunderground v.1.15,2013-03-24 19:31:00,
2013-03-24 12:36:00,46.8,33.6,30.31,ENE,64,0.0,2.0,60,0.00,,,0.00,Wunderground v.1.15,2013-03-24 19:36:00,
2013-03-24 12:41:00,46.7,34.0,30.31,ENE,64,2.0,2.0,61,0.00,,,0.00,Wunderground v.1.15,2013-03-24 19:41:00,
2013-03-24 12:46:00,46.7,33.5,30.31,ENE,64,0.0,2.0,60,0.00,,,0.00,Wunderground v.1.15,2013-03-24 19:46:00,
2013-03-24 12:52:00,47.2,34.4,30.31,ENE,64,0.0,1.0,61,0.00,,,0.00,Wunderground v.1.15,2013-03-24 19:52:00,
2013-03-24 12:57:00,47.4,33.8,30.30,ENE,64,1.0,2.0,59,0.00,,,0.00,Wunderground v.1.15,2013-03-24 19:57:00,
2013-03-24 13:02:00,47.8,34.2,30.30,ENE,64,0.0,1.0,59,0.00,,,0.00,Wunderground v.1.15,2013-03-24 20:02:00,
2013-03-24 13:07:00,47.6,33.1,30.30,ENE,64,0.0,1.0,57,0.00,,,0.00,Wunderground v.1.15,2013-03-24 20:07:00,
2013-03-24 13:12:00,48.1,32.7,30.30,ENE,64,0.0,0.0,55,0.00,,,0.00,Wunderground v.1.15,2013-03-24 20:12:00,
2013-03-24 13:17:00,48.5,34.8,30.30,ENE,64,0.0,0.0,59,0.00,,,0.00,Wunderground v.1.15,2013-03-24 20:17:00,
2013-03-24 13:22:00,47.6,34.4,30.30,ENE,64,0.0,0.0,60,0.00,,,0.00,Wunderground v.1.15,2013-03-24 20:22:00,
2013-03-24 13:27:00,47.9,35.1,30.30,ENE,64,0.0,1.0,61,0.00,,,0.00,Wunderground v.1.15,2013-03-24 20:27:00,
2013-03-24 13:32:00,48.8,34.2,30.29,ENE,64,0.0,0.0,57,0.00,,,0.00,Wunderground v.1.15,2013-03-24 20:32:00,
2013-03-24 13:37:00,49.1,32.2,30.29,ENE,64,0.0,2.0,52,0.00,,,0.00,Wunderground v.1.15,2013-03-24 20:37:00,
2013-03-24 13:42:00,49.2,30.8,30.30,ENE,64,0.0,0.0,49,0.00,,,0.00,Wunderground v.1.15,2013-03-24 20:42:00,
2013-03-24 13:47:00,49.8,30.9,30.30,ENE,64,0.0,0.0,48,0.00,,,0.00,Wunderground v.1.15,2013-03-24 20:47:00,
2013-03-24 13:52:00,50.2,31.2,30.29,ENE,64,0.0,0.0,48,0.00,,,0.00,Wunderground v.1.15,2013-03-24 20:52:00,
2013-03-24 13:57:00,49.9,32.0,30.29,ENE,64,0.0,0.0,50,0.00,,,0.00,Wunderground v.1.15,2013-03-24 20:57:00,
2013-03-24 14:02:00,49.9,32.0,30.29,ENE,64,0.0,0.0,50,0.00,,,0.00,Wunderground v.1.15,2013-03-24 21:02:00,
2013-03-24 14:07:00,50.1,31.2,30.28,ENE,64,0.0,1.0,48,0.00,,,0.00,Wunderground v.1.15,2013-03-24 21:07:00,
2013-03-24 14:12:00,50.4,36.2,30.28,ENE,64,0.0,3.0,58,0.00,,,0.00,Wunderground v.1.15,2013-03-24 21:12:00,
2013-03-24 14:17:00,49.2,36.3,30.28,ENE,64,0.0,3.0,61,0.00,,,0.00,Wunderground v.1.15,2013-03-24 21:17:00,
2013-03-24 14:22:00,50.0,35.8,30.28,ENE,64,0.0,0.0,58,0.00,,,0.00,Wunderground v.1.15,2013-03-24 21:22:00,
2013-03-24 14:27:00,50.2,36.0,30.28,ENE,64,0.0,0.0,58,0.00,,,0.00,Wunderground v.1.15,2013-03-24 21:27:00,
2013-03-24 14:32:00,50.9,33.9,30.27,ENE,64,0.0,0.0,52,0.00,,,0.00,Wunderground v.1.15,2013-03-24 21:32:00,
2013-03-24 14:38:00,49.8,35.2,30.27,ENE,64,0.0,2.0,57,0.00,,,0.00,Wunderground v.1.15,2013-03-24 21:38:00,
2013-03-24 14:43:00,50.1,33.1,30.27,ENE,64,0.0,0.0,52,0.00,,,0.00,Wunderground v.1.15,2013-03-24 21:43:00,
2013-03-24 14:48:00,50.7,34.6,30.27,ENE,64,0.0,0.0,54,0.00,,,0.00,Wunderground v.1.15,2013-03-24 21:48:00,
2013-03-24 14:53:00,51.5,34.0,30.27,ENE,64,0.0,0.0,51,0.00,,,0.00,Wunderground v.1.15,2013-03-24 21:53:00,
2013-03-24 14:58:00,51.5,33.5,30.26,ENE,64,0.0,2.0,50,0.00,,,0.00,Wunderground v.1.15,2013-03-24 21:58:00,
2013-03-24 15:03:00,51.4,33.4,30.26,ENE,64,0.0,2.0,50,0.00,,,0.00,Wunderground v.1.15,2013-03-24 22:03:00,
2013-03-24 15:08:00,51.8,33.7,30.26,ENE,64,0.0,3.0,50,0.00,,,0.00,Wunderground v.1.15,2013-03-24 22:08:00,
2013-03-24 15:13:00,51.7,37.4,30.26,ENE,64,0.0,2.0,58,0.00,,,0.00,Wunderground v.1.15,2013-03-24 22:13:00,
2013-03-24 15:18:00,52.2,37.4,30.26,ENE,64,0.0,2.0,57,0.00,,,0.00,Wunderground v.1.15,2013-03-24 22:18:00,
2013-03-24 15:23:00,52.0,37.7,30.26,ENE,64,1.0,2.0,58,0.00,,,0.00,Wunderground v.1.15,2013-03-24 22:23:00,
2013-03-24 15:28:00,52.5,37.2,30.26,ENE,64,1.0,3.0,56,0.00,,,0.00,Wunderground v.1.15,2013-03-24 22:28:00,
2013-03-24 15:33:00,51.9,36.2,30.25,ENE,64,0.0,2.0,55,0.00,,,0.00,Wunderground v.1.15,2013-03-24 22:33:00,
2013-03-24 15:38:00,52.0,33.4,30.25,ENE,64,0.0,2.0,49,0.00,,,0.00,Wunderground v.1.15,2013-03-24 22:38:00,
2013-03-24 15:43:00,53.2,34.5,30.25,ENE,64,0.0,1.0,49,0.00,,,0.00,Wunderground v.1.15,2013-03-24 22:43:00,
2013-03-24 15:48:00,54.2,33.3,30.25,ENE,64,0.0,2.0,45,0.00,,,0.00,Wunderground v.1.15,2013-03-24 22:48:00,
2013-03-24 15:53:00,52.8,35.2,30.24,ENE,64,0.0,3.0,51,0.00,,,0.00,Wunderground v.1.15,2013-03-24 22:53:00,
2013-03-24 15:58:00,52.6,35.9,30.24,ENE,64,0.0,3.0,53,0.00,,,0.00,Wunderground v.1.15,2013-03-24 22:58:00,
2013-03-24 16:03:00,53.7,35.0,30.24,ENE,64,0.0,1.0,49,0.00,,,0.00,Wunderground v.1.15,2013-03-24 23:03:00,
2013-03-24 16:08:00,53.6,33.8,30.24,ENE,64,3.0,4.0,47,0.00,,,0.00,Wunderground v.1.15,2013-03-24 23:08:00,
2013-03-24 16:13:00,53.6,33.8,30.24,ENE,64,2.0,4.0,47,0.00,,,0.00,Wunderground v.1.15,2013-03-24 23:13:00,
2013-03-24 16:18:00,54.1,33.2,30.23,ENE,64,0.0,4.0,45,0.00,,,0.00,Wunderground v.1.15,2013-03-24 23:18:00,
2013-03-24 16:23:00,54.7,30.8,30.23,ENE,64,0.0,1.0,40,0.00,,,0.00,Wunderground v.1.15,2013-03-24 23:23:00,
2013-03-24 16:28:00,54.9,31.0,30.23,ENE,64,0.0,2.0,40,0.00,,,0.00,Wunderground v.1.15,2013-03-24 23:28:00,
2013-03-24 16:33:00,55.1,32.4,30.23,ENE,64,1.0,1.0,42,0.00,,,0.00,Wunderground v.1.15,2013-03-24 23:33:00,
2013-03-24 16:38:00,54.9,33.9,30.23,ENE,64,0.0,3.0,45,0.00,,,0.00,Wunderground v.1.15,2013-03-24 23:38:00,
2013-03-24 16:43:00,54.3,33.4,30.23,ENE,64,0.0,1.0,45,0.00,,,0.00,Wunderground v.1.15,2013-03-24 23:43:00,
2013-03-24 16:48:00,54.3,31.7,30.22,ENE,64,1.0,3.0,42,0.00,,,0.00,Wunderground v.1.15,2013-03-24 23:48:00,
2013-03-24 16:53:00,54.2,33.3,30.22,ENE,64,0.0,2.0,45,0.00,,,0.00,Wunderground v.1.15,2013-03-24 23:53:00,
2013-03-24 16:58:00,54.0,31.4,30.22,ENE,64,1.0,2.0,42,0.00,,,0.00,Wunderground v.1.15,2013-03-24 23:58:00,
2013-03-24 17:03:00,54.0,31.4,30.22,ENE,64,0.0,2.0,42,0.00,,,0.00,Wunderground v.1.15,2013-03-25 00:03:00,
2013-03-24 17:08:00,53.9,30.7,30.22,ENE,64,0.0,2.0,41,0.00,,,0.00,Wunderground v.1.15,2013-03-25 00:08:00,
2013-03-24 17:13:00,54.0,31.4,30.22,ENE,64,0.0,1.0,42,0.00,,,0.00,Wunderground v.1.15,2013-03-25 00:13:00,
2013-03-24 17:18:00,54.0,30.2,30.22,ENE,64,0.0,1.0,40,0.00,,,0.00,Wunderground v.1.15,2013-03-25 00:18:00,
2013-03-24 17:23:00,53.8,34.0,30.21,ENE,64,0.0,2.0,47,0.00,,,0.00,Wunderground v.1.15,2013-03-25 00:23:00,
2013-03-24 17:28:00,52.9,31.6,30.21,ENE,64,0.0,2.0,44,0.00,,,0.00,Wunderground v.1.15,2013-03-25 00:28:00,
2013-03-24 17:33:00,52.7,30.8,30.21,ENE,64,0.0,0.0,43,0.00,,,0.00,Wunderground v.1.15,2013-03-25 00:33:00,
2013-03-24 17:38:00,52.9,31.0,30.21,ENE,64,0.0,0.0,43,0.00,,,0.00,Wunderground v.1.15,2013-03-25 00:38:00,
2013-03-24 17:43:00,52.8,30.3,30.21,ENE,64,0.0,0.0,42,0.00,,,0.00,Wunderground v.1.15,2013-03-25 00:43:00,
2013-03-24 17:48:00,52.9,30.4,30.21,ENE,64,0.0,0.0,42,0.00,,,0.00,Wunderground v.1.15,2013-03-25 00:48:00,
2013-03-24 17:53:00,52.8,30.9,30.21,ENE,64,0.0,0.0,43,0.00,,,0.00,Wunderground v.1.15,2013-03-25 00:53:00,
2013-03-24 17:58:00,52.8,30.9,30.21,ENE,64,0.0,0.0,43,0.00,,,0.00,Wunderground v.1.15,2013-03-25 00:58:00,
2013-03-24 18:03:00,52.9,32.1,30.20,ENE,64,0.0,0.0,45,0.00,,,0.00,Wunderground v.1.15,2013-03-25 01:03:00,
2013-03-24 18:08:00,52.8,30.9,30.20,ENE,64,0.0,0.0,43,0.00,,,0.00,Wunderground v.1.15,2013-03-25 01:08:00,
2013-03-24 18:13:00,52.5,32.3,30.20,ENE,64,0.0,0.0,46,0.00,,,0.00,Wunderground v.1.15,2013-03-25 01:13:00,
2013-03-24 18:19:00,52.1,31.9,30.20,ENE,64,1.0,3.0,46,0.00,,,0.00,Wunderground v.1.15,2013-03-25 01:19:00,
2013-03-24 18:24:00,52.4,31.1,30.20,ENE,64,2.0,3.0,44,0.00,,,0.00,Wunderground v.1.15,2013-03-25 01:24:00,
2013-03-24 18:29:00,52.6,31.3,30.20,ENE,64,0.0,3.0,44,0.00,,,0.00,Wunderground v.1.15,2013-03-25 01:29:00,
2013-03-24 18:34:00,52.4,33.3,30.20,ENE,64,0.0,1.0,48,0.00,,,0.00,Wunderground v.1.15,2013-03-25 01:34:00,
2013-03-24 18:39:00,51.9,32.8,30.20,ENE,64,1.0,1.0,48,0.00,,,0.00,Wunderground v.1.15,2013-03-25 01:39:00,
2013-03-24 18:44:00,51.5,33.0,30.20,ENE,64,0.0,2.0,49,0.00,,,0.00,Wunderground v.1.15,2013-03-25 01:44:00,
2013-03-24 18:49:00,51.3,32.8,30.20,ENE,64,0.0,2.0,49,0.00,,,0.00,Wunderground v.1.15,2013-03-25 01:49:00,
2013-03-24 18:54:00,50.9,32.9,30.19,ENE,64,0.0,3.0,50,0.00,,,0.00,Wunderground v.1.15,2013-03-25 01:54:00,
2013-03-24 18:59:00,50.5,33.0,30.20,ENE,64,0.0,1.0,51,0.00,,,0.00,Wunderground v.1.15,2013-03-25 01:59:00,
2013-03-24 19:04:00,49.9,34.8,30.20,ENE,64,0.0,3.0,56,0.00,,,0.00,Wunderground v.1.15,2013-03-25 02:04:00,
2013-03-24 19:09:00,49.2,36.7,30.20,ENE,64,0.0,1.0,62,0.00,,,0.00,Wunderground v.1.15,2013-03-25 02:09:00,
2013-03-24 19:14:00,48.6,37.0,30.19,ENE,64,0.0,3.0,64,0.00,,,0.00,Wunderground v.1.15,2013-03-25 02:14:00,
2013-03-24 19:19:00,48.2,38.1,30.19,ENE,64,0.0,0.0,68,0.00,,,0.00,Wunderground v.1.15,2013-03-25 02:19:00,
2013-03-24 19:24:00,47.9,35.9,30.19,ENE,64,0.0,0.0,63,0.00,,,0.00,Wunderground v.1.15,2013-03-25 02:24:00,
2013-03-24 19:29:00,47.8,35.0,30.19,ENE,64,0.0,0.0,61,0.00,,,0.00,Wunderground v.1.15,2013-03-25 02:29:00,
2013-03-24 19:35:00,47.7,33.2,30.19,ENE,64,0.0,0.0,57,0.00,,,0.00,Wunderground v.1.15,2013-03-25 02:35:00,
2013-03-24 19:40:00,47.6,34.0,30.19,ENE,64,0.0,0.0,59,0.00,,,0.00,Wunderground v.1.15,2013-03-25 02:40:00,
2013-03-24 19:45:00,47.3,34.5,30.19,ENE,64,0.0,0.0,61,0.00,,,0.00,Wunderground v.1.15,2013-03-25 02:45:00,
2013-03-24 19:50:00,47.0,34.6,30.19,ENE,64,0.0,0.0,62,0.00,,,0.00,Wunderground v.1.15,2013-03-25 02:50:00,
2013-03-24 19:55:00,46.9,35.4,30.19,ENE,64,0.0,0.0,64,0.00,,,0.00,Wunderground v.1.15,2013-03-25 02:55:00,
2013-03-24 20:00:00,46.7,35.2,30.19,ENE,64,0.0,0.0,64,0.00,,,0.00,Wunderground v.1.15,2013-03-25 03:00:00,
2013-03-24 20:05:00,46.3,35.6,30.19,ENE,64,0.0,0.0,66,0.00,,,0.00,Wunderground v.1.15,2013-03-25 03:05:00,
2013-03-24 20:10:00,46.2,35.5,30.19,ENE,64,0.0,0.0,66,0.00,,,0.00,Wunderground v.1.15,2013-03-25 03:10:00,
2013-03-24 20:15:00,46.1,35.7,30.19,ENE,64,0.0,0.0,67,0.00,,,0.00,Wunderground v.1.15,2013-03-25 03:15:00,
2013-03-24 20:20:00,45.8,34.7,30.19,ENE,64,0.0,0.0,65,0.00,,,0.00,Wunderground v.1.15,2013-03-25 03:20:00,
2013-03-24 20:25:00,45.4,34.3,30.19,ENE,64,0.0,0.0,65,0.00,,,0.00,Wunderground v.1.15,2013-03-25 03:25:00,
2013-03-24 20:30:00,45.0,34.7,30.19,ENE,64,0.0,0.0,67,0.00,,,0.00,Wunderground v.1.15,2013-03-25 03:30:00,
2013-03-24 20:35:00,44.8,34.9,30.19,ENE,64,0.0,0.0,68,0.00,,,0.00,Wunderground v.1.15,2013-03-25 03:35:00,
2013-03-24 20:40:00,44.7,35.1,30.19,ENE,64,0.0,0.0,69,0.00,,,0.00,Wunderground v.1.15,2013-03-25 03:40:00,
2013-03-24 20:45:00,44.6,34.7,30.20,ENE,64,0.0,1.0,68,0.00,,,0.00,Wunderground v.1.15,2013-03-25 03:45:00,
2013-03-24 20:50:00,44.6,34.7,30.19,ENE,64,0.0,0.0,68,0.00,,,0.00,Wunderground v.1.15,2013-03-25 03:50:00,
2013-03-24 20:55:00,44.3,35.1,30.20,ENE,64,0.0,0.0,70,0.00,,,0.00,Wunderground v.1.15,2013-03-25 03:55:00,
2013-03-24 21:00:00,44.3,35.1,30.20,ENE,64,0.0,0.0,70,0.00,,,0.00,Wunderground v.1.15,2013-03-25 04:00:00,
2013-03-24 21:05:00,44.2,35.0,30.20,ENE,64,0.0,0.0,70,0.00,,,0.00,Wunderground v.1.15,2013-03-25 04:05:00,
2013-03-24 21:10:00,43.9,34.4,30.20,ENE,64,0.0,0.0,69,0.00,,,0.00,Wunderground v.1.15,2013-03-25 04:10:00,
2013-03-24 21:15:00,43.7,34.2,30.20,ENE,64,0.0,0.0,69,0.00,,,0.00,Wunderground v.1.15,2013-03-25 04:15:00,
2013-03-24 21:20:00,43.6,34.1,30.20,ENE,64,1.0,2.0,69,0.00,,,0.00,Wunderground v.1.15,2013-03-25 04:20:00,
2013-03-24 21:25:00,43.6,34.5,30.20,ENE,64,0.0,4.0,70,0.00,,,0.00,Wunderground v.1.15,2013-03-25 04:25:00,
2013-03-24 21:30:00,43.7,34.2,30.20,ENE,64,0.0,1.0,69,0.00,,,0.00,Wunderground v.1.15,2013-03-25 04:30:00,
2013-03-24 21:35:00,43.8,34.6,30.20,ENE,64,0.0,3.0,70,0.00,,,0.00,Wunderground v.1.15,2013-03-25 04:35:00,
2013-03-24 21:40:00,43.9,34.7,30.20,ENE,64,0.0,1.0,70,0.00,,,0.00,Wunderground v.1.15,2013-03-25 04:40:00,
2013-03-24 21:45:00,43.9,34.7,30.20,ENE,64,0.0,1.0,70,0.00,,,0.00,Wunderground v.1.15,2013-03-25 04:45:00,
2013-03-24 21:50:00,43.9,34.7,30.20,ENE,64,0.0,0.0,70,0.00,,,0.00,Wunderground v.1.15,2013-03-25 04:50:00,
2013-03-24 21:55:00,43.9,34.7,30.20,ENE,64,0.0,2.0,70,0.00,,,0.00,Wunderground v.1.15,2013-03-25 04:55:00,
2013-03-24 22:00:00,43.8,34.6,30.20,ENE,64,0.0,2.0,70,0.00,,,0.00,Wunderground v.1.15,2013-03-25 05:00:00,
2013-03-24 22:05:00,43.8,34.6,30.20,ENE,64,0.0,2.0,70,0.00,,,0.00,Wunderground v.1.15,2013-03-25 05:05:00,
2013-03-24 22:10:00,43.6,34.8,30.20,ENE,64,1.0,1.0,71,0.00,,,0.00,Wunderground v.1.15,2013-03-25 05:10:00,
2013-03-24 22:15:00,43.5,34.7,30.20,ENE,64,0.0,2.0,71,0.00,,,0.00,Wunderground v.1.15,2013-03-25 05:15:00,
2013-03-24 22:20:00,43.5,34.4,30.20,ENE,64,0.0,0.0,70,0.00,,,0.00,Wunderground v.1.15,2013-03-25 05:20:00,
2013-03-24 22:25:00,43.6,34.5,30.20,ENE,64,0.0,0.0,70,0.00,,,0.00,Wunderground v.1.15,2013-03-25 05:25:00,
2013-03-24 22:30:00,43.7,35.3,30.20,ENE,64,0.0,0.0,72,0.00,,,0.00,Wunderground v.1.15,2013-03-25 05:30:00,
2013-03-24 22:35:00,43.6,35.5,30.20,ENE,64,0.0,0.0,73,0.00,,,0.00,Wunderground v.1.15,2013-03-25 05:35:00,
2013-03-24 22:40:00,43.6,35.2,30.20,ENE,64,0.0,0.0,72,0.00,,,0.00,Wunderground v.1.15,2013-03-25 05:40:00,
2013-03-24 22:45:00,43.9,33.3,30.20,ENE,64,0.0,0.0,66,0.00,,,0.00,Wunderground v.1.15,2013-03-25 05:45:00,
2013-03-24 22:50:00,44.2,34.3,30.20,ENE,64,0.0,0.0,68,0.00,,,0.00,Wunderground v.1.15,2013-03-25 05:50:00,
2013-03-24 22:55:00,44.2,35.0,30.20,ENE,64,0.0,0.0,70,0.00,,,0.00,Wunderground v.1.15,2013-03-25 05:55:00,
2013-03-24 23:00:00,44.4,33.7,30.20,ENE,64,0.0,0.0,66,0.00,,,0.00,Wunderground v.1.15,2013-03-25 06:00:00,
2013-03-24 23:05:00,44.6,33.6,30.20,ENE,64,0.0,0.0,65,0.00,,,0.00,Wunderground v.1.15,2013-03-25 06:05:00,
2013-03-24 23:10:00,45.0,32.3,30.20,ENE,64,0.0,0.0,61,0.00,,,0.00,Wunderground v.1.15,2013-03-25 06:10:00,
2013-03-24 23:15:00,45.2,33.3,30.20,ENE,64,0.0,0.0,63,0.00,,,0.00,Wunderground v.1.15,2013-03-25 06:15:00,
2013-03-24 23:20:00,45.3,34.2,30.20,ENE,64,0.0,0.0,65,0.00,,,0.00,Wunderground v.1.15,2013-03-25 06:20:00,
2013-03-24 23:25:00,45.4,31.9,30.20,ENE,64,0.0,1.0,59,0.00,,,0.00,Wunderground v.1.15,2013-03-25 06:25:00,
2013-03-24 23:30:00,45.6,31.7,30.20,ENE,64,0.0,0.0,58,0.00,,,0.00,Wunderground v.1.15,2013-03-25 06:30:00,
2013-03-24 23:35:00,45.6,31.7,30.20,ENE,64,0.0,2.0,58,0.00,,,0.00,Wunderground v.1.15,2013-03-25 06:35:00,
2013-03-24 23:40:00,45.6,30.8,30.20,ENE,64,0.0,2.0,56,0.00,,,0.00,Wunderground v.1.15,2013-03-25 06:40:00,
2013-03-24 23:45:00,45.6,31.2,30.20,ENE,64,0.0,4.0,57,0.00,,,0.00,Wunderground v.1.15,2013-03-25 06:45:00,
2013-03-24 23:50:00,45.6,30.8,30.20,ENE,64,2.0,4.0,56,0.00,,,0.00,Wunderground v.1.15,2013-03-25 06:50:00,
2013-03-24 23:55:00,45.6,30.8,30.20,ENE,64,3.0,4.0,56,0.00,,,0.00,Wunderground v.1.15,2013-03-25 06:55:00,